• Join FlightAware (Why Join?)
  • Login
  • US Flag 
10:28PM EDT


 

Airport Tracker/Info


-or-


 

Live Flight TrackerFlight Track Log ✈ CES2368 ✈ 21-Jul-2013 ✈ ZUJZ / JZH - ZLXY / XIY

Flight Track Log - Related Links

Times and Time Zones

All times are in EDT time to prevent confusion due to time zone crossing. See the CES2368 flight status page for this flight to view local times or setup timezone preferences in your user account.

Time Position Orientation Groundspeed Altitude Reporting Facility
EDT Latitude Longitude Course Direction KTS MPH feet Rate Location/Type
06:04AM 33.2379 104.8231 68° East  Level Estimated
06:05AM 33.2668 104.9112 69° East  Level Estimated
06:06AM 33.2956 104.9994 69° East  Level Estimated
06:07AM 33.3244 105.0876 69° East  Level Estimated
06:08AM 33.3530 105.1759 69° East  Level Estimated
06:09AM 33.3817 105.2642 69° East  Level Estimated
06:10AM 33.4102 105.3526 69° East  Level Estimated
06:11AM 33.4387 105.4411 69° East  Level Estimated
06:12AM 33.4672 105.5296 69° East  Level Estimated
06:13AM 33.4955 105.6182 69° East  Level Estimated
06:14AM 33.5238 105.7068 69° East  Level Estimated
06:15AM 33.5521 105.7955 69° East  Level Estimated
06:16AM 33.5802 105.8843 69° East  Level Estimated
06:17AM 33.6084 105.9731 69° East  Level Estimated
06:18AM 33.6364 106.0619 69° East  Level Estimated
06:19AM 33.6644 106.1508 69° East  Level Estimated
06:20AM 33.6923 106.2398 69° East  Level Estimated
06:21AM 33.7202 106.3289 69° East  Level Estimated
06:22AM 33.7480 106.4180 69° East  Level Estimated
06:23AM 33.7757 106.5071 69° East  Level Estimated
06:24AM 33.8034 106.5963 70° East  Level Estimated
06:25AM 33.8310 106.6856 70° East  Level Estimated
06:26AM 33.8586 106.7749 70° East  Level Estimated
06:27AM 33.8860 106.8643 70° East  Level Estimated
06:28AM 33.9134 106.9537 70° East  Level Estimated
06:29AM 33.9408 107.0432 70° East  Level Estimated
06:30AM 33.9681 107.1328 70° East  Level Estimated
06:31AM 33.9953 107.2224 70° East  Level Estimated
06:32AM 34.0224 107.3121 70° East  Level Estimated
06:33AM 34.0495 107.4018 70° East  Level Estimated
06:34AM 34.0765 107.4916 70° East  Level Estimated
06:35AM 34.1035 107.5814 70° East  Level Estimated
06:36AM 34.1304 107.6713 70° East  Level Estimated
06:37AM 34.1572 107.7613 70° East  Level Estimated
06:38AM 34.1840 107.8513 70° East  Level Estimated
06:39AM 34.2107 107.9414 70° East  Level Estimated
06:40AM 34.2373 108.0315 70° East  Level Estimated
06:41AM 34.2639 108.1217 70° East  Level Estimated
06:42AM 34.2904 108.2119 70° East  Level Estimated
06:43AM 34.3168 108.3022 70° East  Level Estimated
06:44AM 34.3432 108.3926 71° East  Level Estimated
06:45AM 34.3695 108.4830 71° East  Level Estimated
06:46AM 34.3957 108.5735 71° East  Level Estimated
06:47AM 34.4219 108.6640 71° East  Level Estimated
06:48AM 34.4471 108.7516 71° East  Level Estimated
06:49AM 34.4471 108.7516 121° Southeast  Level Estimated
06:50AM 34.4471 108.7516 121° Southeast  Level Estimated
06:51AM 34.4471 108.7516 121° Southeast  Level Estimated
06:52AM 34.4471 108.7516 121° Southeast  Level Estimated
06:53AM 34.4471 108.7516 121° Southeast  Level Estimated
06:54AM 34.4471 108.7516 121° Southeast  Level Estimated
06:55AM 34.4471 108.7516 121° Southeast  Level Estimated
06:56AM 34.4471 108.7516 121° Southeast  Level Estimated
06:57AM 34.4471 108.7516 121° Southeast  Level Estimated
06:58AM 34.4471 108.7516 121° Southeast  Level Estimated
06:59AM 34.4471 108.7516 121° Southeast  Level Estimated
07:00AM 34.4471 108.7516 121° Southeast  Level Estimated